createdAt,value
2018-04-12T00:01:22.137Z,4.23
2018-04-12T00:03:48.935Z,5.67
2018-04-12T00:06:15.802Z,5.53
2018-04-12T00:08:42.672Z,5.97
2018-04-12T00:11:09.514Z,5.70
2018-04-12T00:13:36.306Z,5.17
2018-04-12T00:16:03.148Z,8.37
2018-04-12T00:18:29.999Z,7.97
2018-04-12T00:20:56.891Z,6.17
2018-04-12T00:23:23.697Z,8.97
2018-04-12T00:25:50.572Z,5.73
2018-04-12T00:28:17.467Z,4.87
2018-04-12T00:30:44.411Z,4.57
2018-04-12T00:33:11.295Z,6.27
2018-04-12T00:35:38.195Z,10.10
2018-04-12T00:38:05.080Z,7.80
2018-04-12T00:40:31.968Z,6.20
2018-04-12T00:42:58.831Z,7.57
2018-04-12T00:45:25.713Z,6.77
2018-04-12T00:47:52.541Z,7.27
2018-04-12T00:50:19.403Z,7.40
2018-04-12T00:52:46.284Z,9.33
2018-04-12T00:55:13.206Z,6.40
2018-04-12T00:57:40.098Z,9.73
2018-04-12T01:00:06.963Z,6.77
2018-04-12T01:02:33.890Z,7.87
2018-04-12T01:05:00.694Z,6.30
2018-04-12T01:07:27.564Z,8.77
2018-04-12T01:09:54.436Z,11.10
2018-04-12T01:12:21.291Z,4.93
2018-04-12T01:14:48.117Z,7.83
2018-04-12T01:17:14.998Z,5.23
2018-04-12T01:19:41.845Z,7.70
2018-04-12T01:22:08.702Z,10.70
2018-04-12T01:24:35.510Z,8.13
2018-04-12T01:27:02.442Z,6.67
2018-04-12T01:29:29.362Z,6.57
2018-04-12T01:31:56.207Z,7.17
2018-04-12T01:34:23.071Z,8.07
2018-04-12T01:36:50.076Z,9.63
2018-04-12T01:39:16.925Z,8.97
2018-04-12T01:41:43.781Z,6.40
2018-04-12T01:44:10.772Z,8.53
2018-04-12T01:46:37.625Z,7.73
2018-04-12T01:49:04.503Z,7.10
2018-04-12T01:51:31.400Z,14.40
2018-04-12T01:53:58.339Z,9.23
2018-04-12T01:56:25.235Z,9.47
2018-04-12T01:58:52.113Z,8.93
2018-04-12T02:01:19.064Z,10.20
2018-04-12T02:03:45.977Z,7.87
2018-04-12T02:06:12.837Z,10.40
2018-04-12T02:08:39.697Z,9.77
2018-04-12T02:11:06.616Z,5.93
2018-04-12T02:13:33.482Z,12.17
2018-04-12T02:16:00.364Z,8.80
2018-04-12T02:18:27.360Z,6.87
2018-04-12T02:20:54.197Z,7.80
2018-04-12T02:23:20.995Z,8.77
2018-04-12T02:25:47.907Z,8.10
2018-04-12T02:28:14.844Z,11.53
2018-04-12T02:30:41.835Z,12.30
2018-04-12T02:33:08.777Z,8.03
2018-04-12T02:35:35.625Z,8.00
2018-04-12T02:38:02.548Z,8.53
2018-04-12T02:40:29.449Z,9.07
2018-04-12T02:42:56.349Z,6.83
2018-04-12T02:45:23.287Z,9.97
2018-04-12T02:47:50.121Z,9.07
2018-04-12T02:50:16.947Z,8.33
2018-04-12T02:52:43.789Z,9.60
2018-04-12T02:55:10.625Z,9.83
2018-04-12T02:57:37.472Z,6.37
2018-04-12T03:00:04.352Z,9.70
2018-04-12T03:02:31.234Z,8.87
2018-04-12T03:04:58.094Z,11.87
2018-04-12T03:07:24.948Z,8.40
2018-04-12T03:09:51.797Z,8.33
2018-04-12T03:12:18.661Z,6.60
2018-04-12T03:14:45.539Z,7.03
2018-04-12T03:17:12.401Z,11.17
2018-04-12T03:19:39.267Z,9.77
2018-04-12T03:22:06.112Z,9.80
2018-04-12T03:24:33.058Z,8.80
2018-04-12T03:26:59.913Z,11.20
2018-04-12T03:29:26.712Z,6.70
2018-04-12T03:31:53.611Z,12.07
2018-04-12T03:34:20.492Z,8.67
2018-04-12T03:36:47.483Z,11.97
2018-04-12T03:39:14.412Z,12.60
2018-04-12T03:41:41.330Z,6.17
2018-04-12T03:44:08.197Z,10.50
2018-04-12T03:46:35.079Z,9.47
2018-04-12T03:49:01.953Z,7.50
2018-04-12T03:51:28.903Z,10.27
2018-04-12T03:53:55.702Z,6.67
2018-04-12T03:56:22.656Z,9.57
2018-04-12T03:58:49.529Z,8.57
2018-04-12T04:01:16.406Z,11.80
2018-04-12T04:03:43.235Z,8.37
2018-04-12T04:06:10.049Z,9.93
2018-04-12T04:08:36.882Z,13.77
2018-04-12T04:11:03.889Z,8.30
2018-04-12T04:13:30.688Z,8.30
2018-04-12T04:16:03.392Z,12.77
2018-04-12T04:18:36.149Z,8.43
2018-04-12T04:21:05.882Z,9.33
2018-04-12T04:23:32.709Z,10.90
2018-04-12T04:25:59.522Z,11.07
2018-04-12T04:28:26.456Z,9.47
2018-04-12T04:30:53.363Z,11.73
2018-04-12T04:33:20.163Z,8.73
2018-04-12T04:35:47.044Z,11.33
2018-04-12T04:38:13.833Z,15.90
2018-04-12T04:40:40.695Z,15.53
2018-04-12T04:43:07.598Z,13.33
2018-04-12T04:45:34.464Z,11.90
2018-04-12T04:48:01.403Z,11.97
2018-04-12T04:50:28.287Z,9.63
2018-04-12T04:52:55.164Z,9.13
2018-04-12T04:55:22.039Z,9.50
2018-04-12T04:57:48.997Z,7.87
2018-04-12T05:00:15.863Z,13.27
2018-04-12T05:02:42.840Z,10.60
2018-04-12T05:05:09.723Z,8.07
2018-04-12T05:07:36.645Z,9.47
2018-04-12T05:10:03.516Z,9.17
2018-04-12T05:12:30.370Z,10.87
2018-04-12T05:14:57.198Z,12.87
2018-04-12T05:17:24.068Z,8.53
2018-04-12T05:19:50.972Z,8.63
2018-04-12T05:22:17.859Z,9.77
2018-04-12T05:24:44.688Z,9.23
2018-04-12T05:27:11.572Z,17.23
2018-04-12T05:29:38.464Z,7.17
2018-04-12T05:32:05.359Z,10.00
2018-04-12T05:34:32.278Z,8.13
2018-04-12T05:36:59.130Z,7.57
2018-04-12T05:39:25.993Z,9.30
2018-04-12T05:41:52.911Z,9.63
2018-04-12T05:44:19.751Z,7.30
2018-04-12T05:46:46.710Z,9.67
2018-04-12T05:49:13.563Z,8.00
2018-04-12T05:51:40.474Z,9.80
2018-04-12T05:54:07.255Z,8.87
2018-04-12T05:56:34.134Z,9.10
2018-04-12T05:59:01.008Z,7.43
2018-04-12T06:01:27.851Z,8.07
2018-04-12T06:03:54.691Z,12.03
2018-04-12T06:06:21.535Z,9.17
2018-04-12T06:08:48.374Z,12.77
2018-04-12T06:11:15.201Z,9.67
2018-04-12T06:13:42.027Z,8.00
2018-04-12T06:16:08.894Z,10.47
2018-04-12T06:18:35.742Z,8.97
2018-04-12T06:21:02.622Z,10.50
2018-04-12T06:23:29.549Z,8.93
2018-04-12T06:25:56.382Z,8.43
2018-04-12T06:28:23.229Z,9.70
2018-04-12T06:30:50.095Z,6.53
2018-04-12T06:33:16.985Z,7.73
2018-04-12T06:35:43.812Z,13.10
2018-04-12T06:38:10.660Z,12.20
2018-04-12T06:40:37.505Z,12.17
2018-04-12T06:43:04.326Z,8.07
2018-04-12T06:45:31.238Z,13.37
2018-04-12T06:47:58.053Z,12.03
2018-04-12T06:50:24.902Z,10.90
2018-04-12T06:52:51.744Z,11.83
2018-04-12T06:55:18.544Z,13.40
2018-04-12T06:57:45.436Z,12.53
2018-04-12T07:00:12.305Z,12.13
2018-04-12T07:02:39.224Z,14.50
2018-04-12T07:05:06.071Z,14.23
2018-04-12T07:07:32.889Z,11.53
2018-04-12T07:10:00.036Z,10.17
2018-04-12T07:12:26.868Z,12.27
2018-04-12T07:14:53.712Z,12.80
2018-04-12T07:17:21.197Z,12.40
2018-04-12T07:19:48.064Z,8.60
2018-04-12T07:22:14.919Z,8.90
2018-04-12T07:24:41.733Z,12.40
2018-04-12T07:27:08.584Z,11.57
2018-04-12T07:29:35.404Z,8.07
2018-04-12T07:32:02.263Z,11.40
2018-04-12T07:34:29.173Z,10.00
2018-04-12T07:36:56.067Z,10.63
2018-04-12T07:39:22.964Z,10.03
2018-04-12T07:41:49.845Z,7.57
2018-04-12T07:44:16.719Z,9.23
2018-04-12T07:46:43.596Z,9.70
2018-04-12T07:49:10.461Z,10.73
2018-04-12T07:51:37.345Z,6.80
2018-04-12T07:54:04.319Z,6.07
2018-04-12T07:56:31.214Z,7.20
2018-04-12T07:58:58.117Z,8.20
2018-04-12T08:01:24.923Z,9.07
2018-04-12T08:03:51.749Z,7.83
2018-04-12T08:06:18.620Z,8.47
2018-04-12T08:08:45.473Z,9.53
2018-04-12T08:11:12.320Z,8.33
2018-04-12T08:13:39.259Z,7.43
2018-04-12T08:16:06.188Z,11.90
2018-04-12T08:18:33.027Z,10.57
2018-04-12T08:20:59.952Z,12.87
2018-04-12T08:23:27.099Z,9.33
2018-04-12T08:25:53.950Z,11.67
2018-04-12T08:28:20.775Z,7.93
2018-04-12T08:30:47.612Z,7.37
2018-04-12T08:33:14.487Z,10.23
2018-04-12T08:35:41.365Z,9.20
2018-04-12T08:38:08.218Z,12.43
2018-04-12T08:40:35.135Z,8.57
2018-04-12T08:43:01.990Z,7.87
2018-04-12T08:45:28.852Z,13.35
2018-04-12T08:47:55.742Z,6.12
2018-04-12T08:50:22.659Z,9.95
2018-04-12T08:52:49.474Z,15.10
2018-04-12T08:55:16.349Z,12.32
2018-04-12T08:57:43.284Z,15.43
2018-04-12T09:00:10.111Z,8.40
2018-04-12T09:02:37.030Z,8.05
2018-04-12T09:05:03.915Z,13.93
2018-04-12T09:07:30.780Z,9.50
2018-04-12T09:09:57.663Z,7.12
2018-04-12T09:12:24.556Z,11.32
2018-04-12T09:14:51.541Z,14.48
2018-04-12T09:17:18.355Z,10.00
2018-04-12T09:19:45.221Z,8.07
2018-04-12T09:22:12.104Z,7.97
2018-04-12T09:24:38.975Z,12.68
2018-04-12T09:27:05.890Z,8.80
2018-04-12T09:29:32.873Z,6.50
2018-04-12T09:31:59.738Z,12.52
2018-04-12T09:34:26.638Z,10.40
2018-04-12T09:36:53.655Z,11.73
2018-04-12T09:39:20.632Z,10.15
2018-04-12T09:41:47.555Z,11.20
2018-04-12T09:44:14.375Z,8.98
2018-04-12T09:46:41.216Z,9.57
2018-04-12T09:49:08.076Z,9.82
2018-04-12T09:51:34.938Z,11.43
2018-04-12T09:54:01.793Z,11.40
2018-04-12T09:56:28.640Z,11.45
2018-04-12T09:58:55.547Z,8.55
2018-04-12T10:01:22.489Z,11.07
2018-04-12T10:03:49.505Z,8.05
2018-04-12T10:06:22.208Z,12.27
2018-04-12T10:08:54.760Z,10.07
2018-04-12T10:11:21.680Z,8.93
2018-04-12T10:13:48.545Z,13.43
2018-04-12T10:16:15.462Z,10.77
2018-04-12T10:18:42.399Z,11.57
2018-04-12T10:21:09.212Z,6.82
2018-04-12T10:23:36.158Z,10.88
2018-04-12T10:26:03.024Z,8.88
2018-04-12T10:28:29.927Z,8.07
2018-04-12T10:30:56.856Z,7.18
2018-04-12T10:33:23.732Z,17.80
2018-04-12T10:35:50.671Z,5.47
2018-04-12T10:38:17.514Z,12.45
2018-04-12T10:40:44.509Z,9.80
2018-04-12T10:43:11.406Z,16.35
2018-04-12T10:45:38.325Z,6.80
2018-04-12T10:48:05.134Z,9.32
2018-04-12T10:50:31.972Z,10.75
2018-04-12T10:52:58.845Z,10.10
2018-04-12T10:55:25.738Z,9.13
2018-04-12T10:57:52.603Z,11.60
2018-04-12T11:00:19.494Z,11.98
2018-04-12T11:02:46.322Z,5.03
2018-04-12T11:05:13.195Z,6.78
2018-04-12T11:07:40.140Z,8.93
2018-04-12T11:10:06.991Z,8.80
2018-04-12T11:12:33.860Z,10.57
2018-04-12T11:15:00.709Z,12.48
2018-04-12T11:17:27.509Z,17.45
2018-04-12T11:19:54.396Z,6.22
2018-04-12T11:22:21.294Z,11.17
2018-04-12T11:24:48.286Z,12.90
2018-04-12T11:27:15.180Z,11.57
2018-04-12T11:29:42.012Z,9.30
2018-04-12T11:32:08.916Z,11.57
2018-04-12T11:34:35.728Z,18.77
2018-04-12T11:37:02.571Z,7.27
2018-04-12T11:39:29.426Z,39.67
2018-04-12T11:41:56.337Z,20.20
2018-04-12T11:44:23.313Z,18.57
2018-04-12T11:46:50.127Z,24.17
2018-04-12T11:49:17.155Z,20.67
2018-04-12T11:51:43.978Z,21.67
2018-04-12T11:54:10.998Z,9.83
2018-04-12T11:56:38.540Z,9.73
2018-04-12T11:59:05.530Z,13.57
2018-04-12T12:01:32.358Z,18.47
2018-04-12T12:04:00.031Z,11.73
2018-04-12T12:06:26.916Z,12.87
2018-04-12T12:08:53.794Z,14.20
2018-04-12T12:11:20.626Z,13.87
2018-04-12T12:13:47.502Z,12.77
2018-04-12T12:16:14.409Z,13.17
2018-04-12T12:18:41.266Z,17.73
2018-04-12T12:21:08.169Z,14.00
2018-04-12T12:23:34.998Z,17.37
2018-04-12T12:26:01.818Z,10.90
2018-04-12T12:28:28.684Z,12.43
2018-04-12T12:30:55.597Z,11.30
2018-04-12T12:33:22.513Z,10.27
2018-04-12T12:35:49.330Z,18.23
2018-04-12T12:38:16.206Z,15.87
2018-04-12T12:40:43.006Z,16.97
2018-04-12T12:43:09.839Z,20.67
2018-04-12T12:45:36.755Z,14.97
2018-04-12T12:48:03.589Z,14.13
2018-04-12T12:50:30.474Z,14.43
2018-04-12T12:52:57.431Z,13.27
2018-04-12T12:55:24.381Z,16.00
2018-04-12T12:57:51.274Z,24.83
2018-04-12T13:00:18.230Z,17.67
2018-04-12T13:02:45.107Z,19.40
2018-04-12T13:05:12.037Z,18.53
2018-04-12T13:07:38.957Z,14.37
2018-04-12T13:10:05.811Z,18.33
2018-04-12T13:12:32.629Z,16.37
2018-04-12T13:14:59.451Z,23.17
2018-04-12T13:17:26.305Z,15.17
2018-04-12T13:19:53.171Z,21.70
2018-04-12T13:22:20.055Z,19.40
2018-04-12T13:24:48.010Z,14.53
2018-04-12T13:27:14.925Z,18.17
2018-04-12T13:29:41.756Z,16.37
2018-04-12T13:32:08.697Z,23.10
2018-04-12T13:34:35.599Z,18.07
2018-04-12T13:37:02.433Z,23.77
2018-04-12T13:39:29.264Z,12.53
2018-04-12T13:41:56.136Z,20.37
2018-04-12T13:44:22.984Z,18.13
2018-04-12T13:46:49.795Z,25.17
2018-04-12T13:49:16.722Z,12.97
2018-04-12T13:51:43.600Z,10.40
2018-04-12T13:54:10.526Z,24.00
2018-04-12T13:56:37.448Z,22.87
2018-04-12T13:59:05.780Z,20.47
2018-04-12T14:01:32.670Z,17.73
2018-04-12T14:03:59.520Z,26.13
2018-04-12T14:06:26.618Z,17.80
2018-04-12T14:08:53.496Z,22.27
2018-04-12T14:11:20.387Z,25.00
2018-04-12T14:13:47.217Z,16.83
2018-04-12T14:16:14.076Z,22.97
2018-04-12T14:18:40.991Z,22.23
2018-04-12T14:21:07.920Z,21.90
2018-04-12T14:23:34.828Z,16.47
2018-04-12T14:26:01.691Z,18.87
2018-04-12T14:28:28.579Z,19.93
2018-04-12T14:30:55.517Z,18.20
2018-04-12T14:33:22.405Z,23.50
2018-04-12T14:35:49.273Z,16.10
2018-04-12T14:38:16.109Z,18.47
2018-04-12T14:40:42.999Z,19.13
2018-04-12T14:43:09.876Z,15.20
2018-04-12T14:45:36.719Z,17.37
2018-04-12T14:48:03.590Z,13.27
2018-04-12T14:50:30.450Z,24.10
2018-04-12T14:52:57.252Z,18.40
2018-04-12T14:55:24.098Z,14.17
2018-04-12T14:57:50.954Z,13.93
2018-04-12T15:00:17.852Z,22.07
2018-04-12T15:02:44.731Z,17.33
2018-04-12T15:05:11.605Z,16.87
2018-04-12T15:07:38.504Z,17.33
2018-04-12T15:10:05.362Z,15.07
2018-04-12T15:12:32.227Z,19.20
2018-04-12T15:14:59.046Z,16.50
2018-04-12T15:17:25.919Z,29.27
2018-04-12T15:19:52.824Z,16.10
2018-04-12T15:22:19.727Z,20.87
2018-04-12T15:24:46.613Z,17.27
2018-04-12T15:27:13.572Z,14.87
2018-04-12T15:29:40.584Z,14.67
2018-04-12T15:32:07.540Z,15.00
2018-04-12T15:34:34.488Z,20.03
2018-04-12T15:37:01.328Z,16.67
2018-04-12T15:39:28.149Z,16.67
2018-04-12T15:41:55.055Z,12.77
2018-04-12T15:44:21.949Z,12.13
2018-04-12T15:46:48.829Z,14.87
2018-04-12T15:49:15.730Z,17.00
2018-04-12T15:51:42.610Z,17.50
2018-04-12T15:54:09.464Z,11.90
2018-04-12T15:56:36.337Z,21.50
2018-04-12T15:59:03.220Z,15.93
2018-04-12T16:01:30.152Z,20.10
2018-04-12T16:03:57.049Z,15.97
2018-04-12T16:06:23.924Z,21.40
2018-04-12T16:08:50.790Z,18.60
2018-04-12T16:11:17.712Z,16.43
2018-04-12T16:13:44.577Z,19.83
2018-04-12T16:16:11.537Z,13.43
2018-04-12T16:18:38.449Z,17.50
2018-04-12T16:21:05.387Z,20.23
2018-04-12T16:23:32.226Z,16.73
2018-04-12T16:25:59.176Z,14.70
2018-04-12T16:28:26.043Z,17.73
2018-04-12T16:30:53.027Z,17.87
2018-04-12T16:33:19.876Z,20.63
2018-04-12T16:35:46.723Z,21.63
2018-04-12T16:38:13.682Z,15.43
2018-04-12T16:40:40.570Z,20.63
2018-04-12T16:43:07.453Z,21.87
2018-04-12T16:45:34.446Z,19.13
2018-04-12T16:48:01.270Z,18.60
2018-04-12T16:50:28.187Z,12.40
2018-04-12T16:52:55.101Z,18.97
2018-04-12T16:55:21.933Z,14.13
2018-04-12T16:57:48.748Z,20.50
2018-04-12T17:00:15.640Z,19.73
2018-04-12T17:02:42.498Z,34.43
2018-04-12T17:05:09.351Z,19.40
2018-04-12T17:07:42.172Z,23.83
2018-04-12T17:10:09.223Z,19.43
2018-04-12T17:12:36.125Z,21.40
2018-04-12T17:15:02.954Z,17.20
2018-04-12T17:17:29.817Z,17.43
2018-04-12T17:19:56.734Z,27.47
2018-04-12T17:22:23.612Z,22.53
2018-04-12T17:24:50.575Z,32.00
2018-04-12T17:27:17.446Z,31.50
2018-04-12T17:29:44.333Z,25.73
2018-04-12T17:32:12.116Z,26.10
2018-04-12T17:34:39.022Z,17.03
2018-04-12T17:37:05.926Z,16.37
2018-04-12T17:39:32.821Z,19.63
2018-04-12T17:41:59.758Z,12.40
2018-04-12T17:44:26.658Z,19.43
2018-04-12T17:46:53.554Z,17.30
2018-04-12T17:49:20.435Z,20.33
2018-04-12T17:51:47.256Z,24.67
2018-04-12T17:54:15.391Z,17.43
2018-04-12T17:56:42.185Z,19.00
2018-04-12T17:59:09.079Z,16.10
2018-04-12T18:01:35.916Z,17.93
2018-04-12T18:04:02.816Z,21.27
2018-04-12T18:06:29.754Z,11.40
2018-04-12T18:08:56.559Z,18.57
2018-04-12T18:11:23.460Z,22.47
2018-04-12T18:13:50.324Z,20.60
2018-04-12T18:16:17.290Z,18.77
2018-04-12T18:18:44.128Z,24.07
2018-04-12T18:21:11.064Z,36.60
2018-04-12T18:23:37.980Z,22.37
2018-04-12T18:26:04.860Z,17.73
2018-04-12T18:28:31.710Z,22.13
2018-04-12T18:30:58.579Z,16.30
2018-04-12T18:33:25.458Z,15.47
2018-04-12T18:35:52.294Z,17.67
2018-04-12T18:38:19.183Z,16.23
2018-04-12T18:40:46.073Z,12.47
2018-04-12T18:43:12.902Z,22.80
2018-04-12T18:45:39.729Z,19.17
2018-04-12T18:48:06.546Z,20.83
2018-04-12T18:50:33.440Z,14.60
2018-04-12T18:53:00.262Z,14.87
2018-04-12T18:55:27.135Z,17.50
2018-04-12T18:57:54.020Z,12.97
2018-04-12T19:00:21.784Z,14.23
2018-04-12T19:02:48.663Z,16.13
2018-04-12T19:05:15.474Z,17.03
2018-04-12T19:07:42.330Z,17.27
2018-04-12T19:10:09.173Z,16.90
2018-04-12T19:12:35.972Z,13.50
2018-04-12T19:15:02.836Z,20.70
2018-04-12T19:17:29.689Z,22.07
2018-04-12T19:19:56.649Z,15.37
2018-04-12T19:22:23.481Z,22.63
2018-04-12T19:24:50.335Z,22.07
2018-04-12T19:27:17.178Z,19.03
2018-04-12T19:29:44.108Z,25.27
2018-04-12T19:32:10.978Z,19.27
2018-04-12T19:34:37.928Z,18.00
2018-04-12T19:37:04.787Z,18.30
2018-04-12T19:39:34.263Z,10.43
2018-04-12T19:42:01.529Z,19.80
2018-04-12T19:44:28.612Z,14.77
2018-04-12T19:46:55.490Z,19.73
2018-04-12T19:49:22.361Z,11.07
2018-04-12T19:51:49.294Z,15.10
2018-04-12T19:54:16.111Z,15.33
2018-04-12T19:56:42.938Z,12.83
2018-04-12T19:59:09.847Z,18.87
2018-04-12T20:01:36.695Z,17.83
2018-04-12T20:04:03.590Z,16.13
2018-04-12T20:06:30.386Z,21.50
2018-04-12T20:08:57.322Z,16.43
2018-04-12T20:11:24.171Z,19.87
2018-04-12T20:13:51.048Z,15.80
2018-04-12T20:16:17.914Z,19.93
2018-04-12T20:18:44.775Z,21.83
2018-04-12T20:21:11.605Z,16.17
2018-04-12T20:23:38.468Z,20.50
2018-04-12T20:26:05.363Z,15.43
2018-04-12T20:28:32.389Z,16.20
2018-04-12T20:30:59.250Z,15.57
2018-04-12T20:33:26.237Z,13.07
2018-04-12T20:35:53.164Z,15.73
2018-04-12T20:38:22.115Z,18.80
2018-04-12T20:40:49.033Z,15.13
2018-04-12T20:43:15.904Z,18.40
2018-04-12T20:45:42.763Z,15.80
2018-04-12T20:48:09.580Z,18.37
2018-04-12T20:50:36.452Z,18.23
2018-04-12T20:53:03.338Z,23.37
2018-04-12T20:55:30.157Z,20.53
2018-04-12T20:57:57.005Z,17.90
2018-04-12T21:00:23.884Z,19.00
2018-04-12T21:02:50.725Z,16.23
2018-04-12T21:05:17.580Z,24.63
2018-04-12T21:07:44.451Z,16.87
2018-04-12T21:10:11.385Z,17.17
2018-04-12T21:12:38.217Z,24.00
2018-04-12T21:15:05.106Z,20.80
2018-04-12T21:17:31.996Z,16.27
2018-04-12T21:19:58.947Z,17.73
2018-04-12T21:22:25.865Z,22.67
2018-04-12T21:24:52.717Z,18.27
2018-04-12T21:27:19.545Z,19.90
2018-04-12T21:29:46.480Z,27.10
2018-04-12T21:32:13.441Z,16.13
2018-04-12T21:34:40.270Z,15.27
2018-04-12T21:37:07.123Z,18.93
2018-04-12T21:39:33.942Z,15.57
2018-04-12T21:42:00.807Z,13.70
2018-04-12T21:44:27.760Z,14.67
2018-04-12T21:46:54.638Z,18.33
2018-04-12T21:49:21.461Z,17.17
2018-04-12T21:51:48.285Z,15.70
2018-04-12T21:54:15.135Z,13.57
2018-04-12T21:56:41.986Z,15.60
2018-04-12T21:59:08.969Z,14.87
2018-04-12T22:01:35.911Z,14.17
2018-04-12T22:04:02.828Z,15.67
2018-04-12T22:06:31.047Z,17.17
2018-04-12T22:08:57.923Z,16.00
2018-04-12T22:11:24.972Z,13.23
2018-04-12T22:13:51.849Z,18.60
2018-04-12T22:16:18.743Z,12.97
2018-04-12T22:18:45.584Z,13.80
2018-04-12T22:21:12.447Z,16.87
2018-04-12T22:23:39.376Z,15.10
2018-04-12T22:26:07.788Z,13.57
2018-04-12T22:28:34.647Z,16.97
2018-04-12T22:31:01.491Z,17.57
2018-04-12T22:33:28.396Z,16.87
2018-04-12T22:35:55.282Z,17.93
2018-04-12T22:38:22.123Z,20.70
2018-04-12T22:40:48.927Z,12.30
2018-04-12T22:43:15.774Z,21.73
2018-04-12T22:45:42.587Z,12.37
2018-04-12T22:48:09.382Z,21.30
2018-04-12T22:50:36.209Z,14.73
2018-04-12T22:53:03.056Z,15.23
2018-04-12T22:55:29.877Z,16.33
2018-04-12T22:57:56.795Z,21.73
2018-04-12T23:00:23.617Z,17.07
2018-04-12T23:02:50.428Z,17.50
2018-04-12T23:05:17.248Z,13.17
2018-04-12T23:07:44.160Z,17.00
2018-04-12T23:10:11.014Z,15.10
2018-04-12T23:12:37.856Z,13.93
2018-04-12T23:15:04.702Z,18.10
2018-04-12T23:17:31.488Z,18.70
2018-04-12T23:19:58.303Z,18.50
2018-04-12T23:22:25.240Z,15.93
2018-04-12T23:24:52.082Z,11.63
2018-04-12T23:27:18.877Z,11.73
2018-04-12T23:29:45.816Z,14.50
2018-04-12T23:32:12.707Z,17.70
2018-04-12T23:34:39.582Z,14.10
2018-04-12T23:37:06.475Z,15.60
2018-04-12T23:39:33.371Z,19.87
2018-04-12T23:42:00.213Z,15.43
2018-04-12T23:44:27.170Z,17.67
2018-04-12T23:46:54.021Z,17.63
2018-04-12T23:49:20.833Z,18.90
2018-04-12T23:51:47.648Z,16.17
2018-04-12T23:54:14.621Z,12.97
2018-04-12T23:56:41.464Z,15.47
2018-04-12T23:59:08.383Z,12.83
